Terminal Aerodrome Forecast
Issued by NWS Boston, MA

Current Version | Previous Version | Text Only | Print | Product List | Glossary On
Versions: 1 2 3 4 5 6 7 8 9 10 11 12 13 14 15 16 17
000
FTUS41 KBOX 241137 AAA
TAFORH
TAF AMD
KORH 241137Z 2412/2512 35005KT P6SM SKC
     FM250200 23004KT P6SM SKC
     FM250500 29004KT P6SM FEW250
     FM251100 36004KT P6SM FEW250=

USA.gov is the U.S. government's official web portal to all federal, state and local government web resources and services.